createdAt,value
2019-03-24T00:00:39.994Z,9.02
2019-03-24T00:01:41.329Z,9.02
2019-03-24T00:02:39.962Z,8.99
2019-03-24T00:03:40.070Z,8.94
2019-03-24T00:04:39.933Z,8.91
2019-03-24T00:05:39.928Z,8.95
2019-03-24T00:06:39.923Z,8.91
2019-03-24T00:07:39.914Z,8.92
2019-03-24T00:08:39.889Z,8.85
2019-03-24T00:09:39.995Z,8.79
2019-03-24T00:10:39.869Z,8.82
2019-03-24T00:11:39.875Z,8.79
2019-03-24T00:12:39.848Z,8.76
2019-03-24T00:13:39.846Z,8.71
2019-03-24T00:14:39.828Z,8.67
2019-03-24T00:15:41.217Z,8.71
2019-03-24T00:16:39.811Z,8.64
2019-03-24T00:17:39.798Z,8.74
2019-03-24T00:18:39.792Z,8.74
2019-03-24T00:19:39.934Z,8.70
2019-03-24T00:20:39.793Z,8.64
2019-03-24T00:21:39.929Z,8.58
2019-03-24T00:22:39.753Z,8.58
2019-03-24T00:23:39.740Z,8.49
2019-03-24T00:24:39.711Z,8.51
2019-03-24T00:25:39.794Z,8.49
2019-03-24T00:26:39.785Z,8.56
2019-03-24T00:27:39.791Z,8.53
2019-03-24T00:28:39.678Z,8.51
2019-03-24T00:29:39.658Z,8.49
2019-03-24T00:30:39.660Z,8.44
2019-03-24T00:31:39.756Z,8.34
2019-03-24T00:32:39.624Z,8.49
2019-03-24T00:33:39.633Z,8.34
2019-03-24T00:34:39.618Z,8.33
2019-03-24T00:35:39.590Z,8.48
2019-03-24T00:36:39.667Z,8.42
2019-03-24T00:37:39.734Z,8.49
2019-03-24T00:38:39.559Z,8.37
2019-03-24T00:39:39.573Z,8.33
2019-03-24T00:40:39.533Z,8.33
2019-03-24T00:41:39.528Z,8.33
2019-03-24T00:42:39.634Z,8.33
2019-03-24T00:43:39.518Z,8.38
2019-03-24T00:44:39.499Z,8.45
2019-03-24T00:45:39.491Z,8.30
2019-03-24T00:46:39.464Z,8.34
2019-03-24T00:47:39.568Z,8.37
2019-03-24T00:48:40.184Z,8.37
2019-03-24T00:49:39.462Z,8.27
2019-03-24T00:50:39.438Z,8.33
2019-03-24T00:51:39.431Z,8.24
2019-03-24T00:52:39.408Z,8.20
2019-03-24T00:53:39.492Z,8.20
2019-03-24T00:54:39.423Z,8.16
2019-03-24T00:55:39.480Z,8.23
2019-03-24T00:56:39.578Z,8.18
2019-03-24T00:57:39.376Z,8.16
2019-03-24T00:58:39.352Z,8.12
2019-03-24T00:59:39.338Z,8.10
2019-03-24T01:00:39.320Z,8.06
2019-03-24T01:01:39.530Z,8.01
2019-03-24T01:02:39.304Z,8.12
2019-03-24T01:03:39.275Z,7.98
2019-03-24T01:04:39.272Z,8.01
2019-03-24T01:05:39.434Z,8.01
2019-03-24T01:06:39.255Z,7.93
2019-03-24T01:07:39.243Z,7.93
2019-03-24T01:08:39.251Z,8.01
2019-03-24T01:09:39.259Z,7.91
2019-03-24T01:10:39.335Z,7.90
2019-03-24T01:11:39.292Z,7.87
2019-03-24T01:12:39.215Z,7.87
2019-03-24T01:13:39.184Z,7.87
2019-03-24T01:14:39.163Z,7.75
2019-03-24T01:15:47.314Z,7.85
2019-03-24T01:16:40.149Z,7.79
2019-03-24T01:17:39.233Z,7.85
2019-03-24T01:18:39.122Z,7.85
2019-03-24T01:19:39.117Z,7.72
2019-03-24T01:21:50.577Z,7.67
2019-03-24T01:22:50.075Z,7.63
2019-03-24T01:23:49.856Z,7.54
2019-03-24T01:24:49.847Z,7.63
2019-03-24T01:25:49.842Z,7.57
2019-03-24T01:26:49.911Z,7.61
2019-03-24T01:27:49.894Z,7.56
2019-03-24T01:28:49.894Z,7.50
2019-03-24T01:29:49.795Z,7.47
2019-03-24T01:30:49.784Z,7.47
2019-03-24T01:31:49.786Z,7.54
2019-03-24T01:32:50.011Z,7.50
2019-03-24T01:33:49.843Z,7.54
2019-03-24T01:34:49.746Z,7.39
2019-03-24T01:35:49.766Z,7.47
2019-03-24T01:36:49.718Z,7.47
2019-03-24T01:37:49.915Z,7.40
2019-03-24T01:38:49.706Z,7.39
2019-03-24T01:39:49.694Z,7.39
2019-03-24T01:40:49.682Z,7.42
2019-03-24T01:41:49.691Z,7.42
2019-03-24T01:42:49.672Z,7.51
2019-03-24T01:43:49.734Z,7.51
2019-03-24T01:44:49.723Z,7.39
2019-03-24T01:45:58.177Z,7.48
2019-03-24T01:46:50.617Z,7.45
2019-03-24T01:47:49.603Z,7.39
2019-03-24T01:48:49.593Z,7.50
2019-03-24T01:49:49.589Z,7.43
2019-03-24T01:50:49.702Z,7.43
2019-03-24T01:51:56.091Z,7.45
2019-03-24T01:52:49.560Z,7.43
2019-03-24T01:53:49.564Z,7.42
2019-03-24T01:54:49.551Z,7.38
2019-03-24T01:55:49.600Z,7.38
2019-03-24T01:56:49.496Z,7.43
2019-03-24T01:57:49.495Z,7.43
2019-03-24T01:58:49.486Z,7.36
2019-03-24T01:59:49.478Z,7.38
2019-03-24T02:00:49.465Z,7.28
2019-03-24T02:01:49.580Z,7.33
2019-03-24T02:02:49.434Z,7.28
2019-03-24T02:03:49.426Z,7.18
2019-03-24T02:04:49.449Z,7.21
2019-03-24T02:05:49.417Z,7.17
2019-03-24T02:06:49.393Z,7.15
2019-03-24T02:07:49.514Z,7.21
2019-03-24T02:08:49.376Z,7.06
2019-03-24T02:09:49.369Z,7.15
2019-03-24T02:10:49.349Z,7.07
2019-03-24T02:11:50.867Z,7.02
2019-03-24T02:12:49.338Z,7.02
2019-03-24T02:13:49.405Z,6.92
2019-03-24T02:14:49.304Z,7.03
2019-03-24T02:15:49.370Z,6.96
2019-03-24T02:16:49.298Z,6.92
2019-03-24T02:17:49.285Z,6.88
2019-03-24T02:18:49.344Z,6.88
2019-03-24T02:19:49.244Z,6.84
2019-03-24T02:20:49.279Z,6.87
2019-03-24T02:21:49.242Z,6.82
2019-03-24T02:22:49.347Z,6.82
2019-03-24T02:23:49.254Z,6.78
2019-03-24T02:24:49.306Z,6.84
2019-03-24T02:25:49.222Z,6.81
2019-03-24T02:26:49.238Z,6.81
2019-03-24T02:27:49.195Z,6.79
2019-03-24T02:28:49.358Z,6.74
2019-03-24T02:29:49.272Z,6.67
2019-03-24T02:30:49.153Z,6.75
2019-03-24T02:31:49.117Z,6.79
2019-03-24T02:32:49.131Z,6.69
2019-03-24T02:33:49.118Z,6.70
2019-03-24T02:34:49.341Z,6.72
2019-03-24T02:35:49.329Z,6.75
2019-03-24T02:36:49.077Z,6.64
2019-03-24T02:37:49.082Z,6.69
2019-03-24T02:38:49.235Z,6.67
2019-03-24T02:39:49.070Z,6.67
2019-03-24T02:40:49.097Z,6.75
2019-03-24T02:41:49.073Z,6.75
2019-03-24T02:42:49.041Z,6.67
2019-03-24T02:43:48.993Z,6.66
2019-03-24T02:44:49.088Z,6.62
2019-03-24T02:45:49.003Z,6.69
2019-03-24T02:46:49.005Z,6.60
2019-03-24T02:47:48.967Z,6.49
2019-03-24T02:48:48.934Z,6.57
2019-03-24T02:49:48.930Z,6.54
2019-03-24T02:50:49.118Z,6.49
2019-03-24T02:51:48.917Z,6.63
2019-03-24T02:52:48.909Z,6.56
2019-03-24T02:53:48.925Z,6.56
2019-03-24T02:54:48.890Z,6.48
2019-03-24T02:55:48.931Z,6.46
2019-03-24T02:56:48.866Z,6.48
2019-03-24T02:57:48.845Z,6.54
2019-03-24T02:58:48.863Z,6.44
2019-03-24T02:59:48.814Z,6.46
2019-03-24T03:00:48.815Z,6.42
2019-03-24T03:01:48.869Z,6.42
2019-03-24T03:02:48.881Z,6.44
2019-03-24T03:03:48.797Z,6.38
2019-03-24T03:04:48.770Z,6.38
2019-03-24T03:05:48.752Z,6.33
2019-03-24T03:06:48.754Z,6.31
2019-03-24T03:07:48.733Z,6.35
2019-03-24T03:08:48.805Z,6.19
2019-03-24T03:09:48.718Z,6.24
2019-03-24T03:10:48.693Z,6.24
2019-03-24T03:11:48.696Z,6.26
2019-03-24T03:12:48.684Z,6.17
2019-03-24T03:13:48.778Z,6.11
2019-03-24T03:14:48.661Z,6.05
2019-03-24T03:15:48.644Z,6.14
2019-03-24T03:16:48.662Z,6.05
2019-03-24T03:17:48.648Z,6.17
2019-03-24T03:18:48.615Z,6.07
2019-03-24T03:19:48.747Z,6.11
2019-03-24T03:20:48.594Z,6.11
2019-03-24T03:21:48.585Z,6.01
2019-03-24T03:22:55.114Z,6.09
2019-03-24T03:23:48.668Z,5.94
2019-03-24T03:24:48.565Z,6.01
2019-03-24T03:25:48.603Z,6.01
2019-03-24T03:26:48.607Z,5.98
2019-03-24T03:27:48.511Z,6.05
2019-03-24T03:28:48.502Z,5.93
2019-03-24T03:29:48.573Z,5.91
2019-03-24T03:30:48.603Z,5.91
2019-03-24T03:31:48.470Z,5.87
2019-03-24T03:32:48.473Z,5.82
2019-03-24T03:33:48.469Z,5.87
2019-03-24T03:34:48.456Z,5.91
2019-03-24T03:35:48.476Z,5.89
2019-03-24T03:36:48.738Z,5.86
2019-03-24T03:37:48.429Z,5.84
2019-03-24T03:38:48.394Z,5.84
2019-03-24T03:39:48.498Z,5.86
2019-03-24T03:40:48.380Z,5.79
2019-03-24T03:41:48.444Z,5.73
2019-03-24T03:42:48.360Z,5.72
2019-03-24T03:43:48.351Z,5.79
2019-03-24T03:44:48.327Z,5.72
2019-03-24T03:45:48.322Z,5.76
2019-03-24T03:46:52.760Z,5.79
2019-03-24T03:47:48.449Z,5.69
2019-03-24T03:48:48.287Z,5.73
2019-03-24T03:49:48.318Z,5.75
2019-03-24T03:50:48.276Z,5.76
2019-03-24T03:51:48.271Z,5.79
2019-03-24T03:52:48.347Z,5.71
2019-03-24T03:53:48.227Z,5.82
2019-03-24T03:54:48.215Z,5.79
2019-03-24T03:55:48.207Z,5.80
2019-03-24T03:56:48.204Z,5.80
2019-03-24T03:57:48.199Z,5.76
2019-03-24T03:58:48.246Z,5.65
2019-03-24T03:59:48.165Z,5.68
2019-03-24T04:00:48.168Z,5.68
2019-03-24T04:01:48.229Z,5.72
2019-03-24T04:02:48.165Z,5.68
2019-03-24T04:03:48.131Z,5.72
2019-03-24T04:04:48.186Z,5.68
2019-03-24T04:05:48.113Z,5.62
2019-03-24T04:06:48.104Z,5.56
2019-03-24T04:07:48.506Z,5.61
2019-03-24T04:08:48.077Z,5.59
2019-03-24T04:09:48.126Z,5.59
2019-03-24T04:10:48.038Z,5.56
2019-03-24T04:11:48.034Z,5.64
2019-03-24T04:12:48.125Z,5.62
2019-03-24T04:13:48.102Z,5.65
2019-03-24T04:14:48.025Z,5.53
2019-03-24T04:15:48.003Z,5.48
2019-03-24T04:16:47.989Z,5.54
2019-03-24T04:17:48.051Z,5.50
2019-03-24T04:18:47.973Z,5.48
2019-03-24T04:19:47.964Z,5.57
2019-03-24T04:20:47.942Z,5.61
2019-03-24T04:21:47.971Z,5.46
2019-03-24T04:22:47.986Z,5.44
2019-03-24T04:23:48.056Z,5.54
2019-03-24T04:24:47.905Z,5.54
2019-03-24T04:25:47.925Z,5.51
2019-03-24T04:26:47.986Z,5.51
2019-03-24T04:27:47.856Z,5.56
2019-03-24T04:28:47.941Z,5.48
2019-03-24T04:29:47.840Z,5.44
2019-03-24T04:30:47.830Z,5.48
2019-03-24T04:31:47.830Z,5.39
2019-03-24T04:32:47.798Z,5.48
2019-03-24T04:33:47.794Z,5.38
2019-03-24T04:34:47.849Z,5.46
2019-03-24T04:35:47.770Z,5.41
2019-03-24T04:36:47.792Z,5.39
2019-03-24T04:37:47.750Z,5.33
2019-03-24T04:38:48.010Z,5.43
2019-03-24T04:39:47.725Z,5.39
2019-03-24T04:40:47.919Z,5.41
2019-03-24T04:41:47.721Z,5.38
2019-03-24T04:42:47.701Z,5.43
2019-03-24T04:43:47.683Z,5.33
2019-03-24T04:44:47.675Z,5.32
2019-03-24T04:45:47.658Z,5.35
2019-03-24T04:46:47.736Z,5.30
2019-03-24T04:47:47.652Z,5.28
2019-03-24T04:48:47.846Z,5.28
2019-03-24T04:49:47.618Z,5.23
2019-03-24T04:50:47.618Z,5.25
2019-03-24T04:51:47.587Z,5.20
2019-03-24T04:52:47.594Z,5.28
2019-03-24T04:53:47.701Z,5.26
2019-03-24T04:54:47.577Z,5.18
2019-03-24T04:55:47.551Z,5.18
2019-03-24T04:56:47.549Z,5.21
2019-03-24T04:57:47.529Z,5.15
2019-03-24T04:58:47.530Z,5.21
2019-03-24T04:59:47.611Z,5.18
2019-03-24T05:00:47.500Z,5.18
2019-03-24T05:01:47.524Z,5.14
2019-03-24T05:02:47.475Z,5.18
2019-03-24T05:03:47.473Z,5.23
2019-03-24T05:04:47.472Z,5.20
2019-03-24T05:05:47.571Z,5.20
2019-03-24T05:06:47.559Z,5.20
2019-03-24T05:07:47.429Z,5.23
2019-03-24T05:08:47.420Z,5.18
2019-03-24T05:09:47.401Z,5.18
2019-03-24T05:10:47.439Z,5.18
2019-03-24T05:11:47.413Z,5.12
2019-03-24T05:12:47.549Z,5.21
2019-03-24T05:13:47.446Z,5.20
2019-03-24T05:14:47.350Z,5.26
2019-03-24T05:15:47.336Z,5.28
2019-03-24T05:16:47.329Z,5.26
2019-03-24T05:17:47.323Z,5.18
2019-03-24T05:18:47.372Z,5.28
2019-03-24T05:19:47.291Z,5.21
2019-03-24T05:20:47.415Z,5.25
2019-03-24T05:21:47.278Z,5.21
2019-03-24T05:22:47.259Z,5.33
2019-03-24T05:23:47.254Z,5.28
2019-03-24T05:24:47.273Z,5.30
2019-03-24T05:25:47.269Z,5.36
2019-03-24T05:26:47.407Z,5.33
2019-03-24T05:27:47.321Z,5.41
2019-03-24T05:28:47.229Z,5.39
2019-03-24T05:29:47.243Z,5.43
2019-03-24T05:30:47.281Z,5.46
2019-03-24T05:31:47.441Z,5.43
2019-03-24T05:32:47.160Z,5.50
2019-03-24T05:33:47.151Z,5.50
2019-03-24T05:34:47.159Z,5.51
2019-03-24T05:35:47.270Z,5.64
2019-03-24T05:36:47.773Z,5.73
2019-03-24T05:37:47.096Z,5.76
2019-03-24T05:38:47.296Z,5.87
2019-03-24T05:39:47.075Z,5.94
2019-03-24T05:40:47.121Z,5.93
2019-03-24T05:41:47.041Z,6.05
2019-03-24T05:42:47.045Z,6.12
2019-03-24T05:43:47.037Z,6.02
2019-03-24T05:44:47.031Z,6.04
2019-03-24T05:45:47.074Z,6.16
2019-03-24T05:46:46.992Z,6.11
2019-03-24T05:47:47.006Z,6.19
2019-03-24T05:48:47.098Z,6.14
2019-03-24T05:49:46.973Z,6.12
2019-03-24T05:50:46.944Z,6.02
2019-03-24T05:51:46.942Z,6.05
2019-03-24T05:52:46.932Z,6.09
2019-03-24T05:53:46.912Z,6.02
2019-03-24T05:54:47.027Z,6.08
2019-03-24T05:55:46.909Z,6.08
2019-03-24T05:56:46.904Z,6.05
2019-03-24T05:57:46.874Z,6.05
2019-03-24T05:58:46.963Z,6.12
2019-03-24T05:59:46.894Z,6.26
2019-03-24T06:00:46.851Z,6.30
2019-03-24T06:01:46.841Z,6.28
2019-03-24T06:02:46.831Z,6.31
2019-03-24T06:03:46.914Z,6.41
2019-03-24T06:04:46.794Z,6.56
2019-03-24T06:05:47.004Z,6.62
2019-03-24T06:06:46.782Z,6.69
2019-03-24T06:07:46.776Z,6.66
2019-03-24T06:08:46.752Z,6.84
2019-03-24T06:09:46.735Z,6.82
2019-03-24T06:10:46.763Z,6.93
2019-03-24T06:11:46.783Z,7.05
2019-03-24T06:12:46.722Z,7.21
2019-03-24T06:13:46.702Z,7.47
2019-03-24T06:14:46.745Z,7.87
2019-03-24T06:15:46.676Z,8.30
2019-03-24T06:16:46.740Z,9.02
2019-03-24T06:17:48.074Z,9.62
2019-03-24T06:18:46.852Z,10.17
2019-03-24T06:19:46.640Z,10.54
2019-03-24T06:20:46.629Z,10.87
2019-03-24T06:21:46.616Z,11.40
2019-03-24T06:22:46.612Z,11.68
2019-03-24T06:23:46.814Z,12.25
2019-03-24T06:24:46.579Z,12.65
2019-03-24T06:25:46.708Z,12.85
2019-03-24T06:26:46.645Z,13.16
2019-03-24T06:27:46.557Z,13.30
2019-03-24T06:28:46.540Z,13.37
2019-03-24T06:29:46.670Z,13.47
2019-03-24T06:30:46.512Z,13.65
2019-03-24T06:31:46.610Z,13.97
2019-03-24T06:32:46.495Z,14.15
2019-03-24T06:33:46.557Z,14.43
2019-03-24T06:34:46.478Z,14.88
2019-03-24T06:35:46.729Z,15.39
2019-03-24T06:36:46.613Z,15.91
2019-03-24T06:37:46.430Z,16.42
2019-03-24T06:38:46.436Z,16.05
2019-03-24T06:39:46.419Z,16.49
2019-03-24T06:40:46.423Z,17.08
2019-03-24T06:41:46.486Z,16.94
2019-03-24T06:42:46.384Z,16.51
2019-03-24T06:43:46.375Z,16.65
2019-03-24T06:44:46.354Z,16.79
2019-03-24T06:45:46.377Z,17.15
2019-03-24T06:46:46.424Z,17.19
2019-03-24T06:47:46.331Z,17.83
2019-03-24T06:48:46.408Z,17.80
2019-03-24T06:49:46.312Z,17.82
2019-03-24T06:50:46.308Z,17.70
2019-03-24T06:51:46.293Z,17.49
2019-03-24T06:52:46.312Z,17.14
2019-03-24T06:53:46.254Z,16.53
2019-03-24T06:54:46.368Z,16.08
2019-03-24T06:55:46.240Z,16.09
2019-03-24T06:56:46.221Z,16.13
2019-03-24T06:57:46.220Z,16.12
2019-03-24T06:58:46.391Z,15.72
2019-03-24T06:59:46.203Z,15.55
2019-03-24T07:00:46.175Z,15.37
2019-03-24T07:01:46.199Z,15.27
2019-03-24T07:02:46.157Z,15.11
2019-03-24T07:03:46.141Z,15.27
2019-03-24T07:04:46.293Z,15.73
2019-03-24T07:05:46.140Z,15.49
2019-03-24T07:06:46.111Z,15.11
2019-03-24T07:07:46.109Z,14.79
2019-03-24T07:08:46.563Z,14.53
2019-03-24T07:09:46.274Z,14.17
2019-03-24T07:10:46.068Z,14.08
2019-03-24T07:11:46.074Z,14.10
2019-03-24T07:12:46.081Z,14.04
2019-03-24T07:13:46.044Z,13.53
2019-03-24T07:14:46.127Z,13.37
2019-03-24T07:15:46.014Z,13.46
2019-03-24T07:16:46.008Z,13.38
2019-03-24T07:17:45.999Z,13.30
2019-03-24T07:18:45.988Z,13.25
2019-03-24T07:19:46.092Z,12.97
2019-03-24T07:20:46.048Z,12.49
2019-03-24T07:21:45.943Z,12.32
2019-03-24T07:22:45.977Z,12.40
2019-03-24T07:23:45.961Z,12.49
2019-03-24T07:24:46.025Z,12.60
2019-03-24T07:25:45.913Z,12.42
2019-03-24T07:26:46.078Z,11.78
2019-03-24T07:27:45.891Z,12.03
2019-03-24T07:28:45.885Z,12.55
2019-03-24T07:29:45.902Z,13.05
2019-03-24T07:30:45.887Z,12.80
2019-03-24T07:31:45.864Z,13.44
2019-03-24T07:32:45.937Z,14.12
2019-03-24T07:33:45.814Z,14.58
2019-03-24T07:34:45.819Z,15.39
2019-03-24T07:35:45.828Z,15.25
2019-03-24T07:36:45.791Z,15.59
2019-03-24T07:37:45.769Z,15.44
2019-03-24T07:38:45.862Z,15.46
2019-03-24T07:39:45.846Z,15.84
2019-03-24T07:40:45.773Z,15.94
2019-03-24T07:41:45.743Z,16.42
2019-03-24T07:42:45.727Z,17.15
2019-03-24T07:43:45.796Z,17.54
2019-03-24T07:44:45.799Z,18.41
2019-03-24T07:45:45.693Z,19.16
2019-03-24T07:46:45.692Z,20.10
2019-03-24T07:47:45.711Z,21.21
2019-03-24T07:48:45.660Z,21.05
2019-03-24T07:49:45.826Z,22.63
2019-03-24T07:50:45.767Z,24.36
2019-03-24T07:51:45.633Z,25.93
2019-03-24T07:52:45.642Z,25.81
2019-03-24T07:53:45.597Z,25.69
2019-03-24T07:54:45.780Z,24.50
2019-03-24T07:55:45.758Z,26.03
2019-03-24T07:56:45.579Z,25.28
2019-03-24T07:57:45.633Z,24.20
2019-03-24T07:58:46.077Z,23.06
2019-03-24T07:59:45.554Z,22.07
2019-03-24T08:00:45.519Z,22.36
2019-03-24T08:01:45.529Z,21.61
2019-03-24T08:02:50.953Z,21.21
2019-03-24T08:03:46.485Z,21.02
2019-03-24T08:04:45.670Z,21.66
2019-03-24T08:05:45.464Z,22.30
2019-03-24T08:06:45.445Z,22.93
2019-03-24T08:07:45.434Z,23.66
2019-03-24T08:08:45.437Z,24.98
2019-03-24T08:09:45.409Z,24.11
2019-03-24T08:10:45.529Z,23.08
2019-03-24T08:11:45.529Z,22.70
2019-03-24T08:12:45.462Z,23.20
2019-03-24T08:13:53.672Z,22.14
2019-03-24T08:14:46.364Z,21.36
2019-03-24T08:15:45.349Z,21.03
2019-03-24T08:16:45.509Z,20.06
2019-03-24T08:17:45.450Z,19.39
2019-03-24T08:18:45.323Z,19.85
2019-03-24T08:19:45.315Z,20.22
2019-03-24T08:20:45.322Z,21.15
2019-03-24T08:21:45.323Z,21.70
2019-03-24T08:22:45.421Z,21.67
2019-03-24T08:23:45.271Z,21.40
2019-03-24T08:24:45.283Z,21.99
2019-03-24T08:25:45.303Z,22.50
2019-03-24T08:26:45.271Z,23.02
2019-03-24T08:27:45.270Z,22.76
2019-03-24T08:28:45.469Z,22.32
2019-03-24T08:29:45.280Z,22.35
2019-03-24T08:30:45.190Z,22.14
2019-03-24T08:31:45.209Z,21.52
2019-03-24T08:32:45.855Z,21.52
2019-03-24T08:33:45.174Z,20.77
2019-03-24T08:34:45.173Z,21.11
2019-03-24T08:35:45.143Z,22.14
2019-03-24T08:36:45.257Z,21.69
2019-03-24T08:37:45.116Z,21.98
2019-03-24T08:38:45.144Z,24.35
2019-03-24T08:39:45.182Z,25.90
2019-03-24T08:40:46.078Z,25.91
2019-03-24T08:41:45.065Z,25.47
2019-03-24T08:42:45.075Z,26.03
2019-03-24T08:43:45.172Z,26.10
2019-03-24T08:44:45.129Z,23.46
2019-03-24T08:45:45.423Z,23.62
2019-03-24T08:46:47.093Z,23.31
2019-03-24T08:47:45.008Z,24.38
2019-03-24T08:48:45.011Z,24.88
2019-03-24T08:49:45.019Z,25.29
2019-03-24T08:50:45.127Z,25.48
2019-03-24T08:51:44.964Z,25.35
2019-03-24T08:52:44.944Z,26.21
2019-03-24T08:53:59.691Z,26.77
2019-03-24T08:54:44.963Z,25.62
2019-03-24T08:55:44.987Z,25.78
2019-03-24T08:56:44.904Z,26.25
2019-03-24T08:57:44.907Z,25.63
2019-03-24T08:58:44.895Z,25.40
2019-03-24T08:59:44.904Z,26.05
2019-03-24T09:00:44.961Z,25.84
2019-03-24T09:01:44.886Z,27.22
2019-03-24T09:02:44.906Z,28.27
2019-03-24T09:03:44.840Z,28.74
2019-03-24T09:04:44.826Z,27.75
2019-03-24T09:05:44.814Z,26.71
2019-03-24T09:06:44.904Z,25.85
2019-03-24T09:07:44.911Z,24.88
2019-03-24T09:08:44.781Z,24.08
2019-03-24T09:09:44.767Z,23.83
2019-03-24T09:10:44.760Z,23.59
2019-03-24T09:11:44.781Z,23.06
2019-03-24T09:12:44.764Z,22.45
2019-03-24T09:13:44.823Z,22.08
2019-03-24T09:14:44.711Z,21.96
2019-03-24T09:15:44.762Z,22.60
2019-03-24T09:16:44.700Z,22.93
2019-03-24T09:17:44.767Z,23.09
2019-03-24T09:18:52.443Z,23.34
2019-03-24T09:19:45.660Z,22.87
2019-03-24T09:20:44.658Z,22.80
2019-03-24T09:21:44.662Z,22.80
2019-03-24T09:22:44.768Z,22.50
2019-03-24T09:23:44.627Z,22.60
2019-03-24T09:24:44.687Z,23.02
2019-03-24T09:25:44.611Z,24.03
2019-03-24T09:26:44.687Z,24.30
2019-03-24T09:27:44.585Z,24.45
2019-03-24T09:28:44.653Z,25.44
2019-03-24T09:29:44.550Z,25.66
2019-03-24T09:30:44.626Z,26.55
2019-03-24T09:31:44.532Z,27.51
2019-03-24T09:32:44.531Z,28.78
2019-03-24T09:33:44.548Z,28.82
2019-03-24T09:34:44.525Z,29.79
2019-03-24T09:35:44.491Z,30.90
2019-03-24T09:36:44.674Z,31.59
2019-03-24T09:37:44.738Z,31.87
2019-03-24T09:38:44.452Z,32.95
2019-03-24T09:39:44.448Z,33.65
2019-03-24T09:40:44.823Z,34.32
2019-03-24T09:41:44.429Z,34.71
2019-03-24T09:42:44.501Z,35.33
2019-03-24T09:43:44.430Z,35.39
2019-03-24T09:44:45.160Z,35.11
2019-03-24T09:45:44.387Z,34.33
2019-03-24T09:46:44.364Z,33.58
2019-03-24T09:47:44.498Z,32.78
2019-03-24T09:48:44.363Z,32.04
2019-03-24T09:49:44.340Z,31.56
2019-03-24T09:50:44.338Z,31.54
2019-03-24T09:51:44.390Z,31.94
2019-03-24T09:52:44.323Z,32.78
2019-03-24T09:53:44.452Z,33.69
2019-03-24T09:54:44.577Z,34.16
2019-03-24T09:55:44.286Z,34.45
2019-03-24T09:56:44.261Z,34.57
2019-03-24T09:57:44.262Z,34.27
2019-03-24T09:58:44.343Z,34.38
2019-03-24T09:59:44.324Z,34.54
2019-03-24T10:00:44.270Z,34.30
2019-03-24T10:01:44.437Z,34.47
2019-03-24T10:02:44.202Z,34.39
2019-03-24T10:03:44.191Z,34.67
2019-03-24T10:04:44.384Z,34.88
2019-03-24T10:05:44.170Z,35.23
2019-03-24T10:06:44.158Z,35.45
2019-03-24T10:07:44.155Z,36.01
2019-03-24T10:08:47.258Z,36.57
2019-03-24T10:09:44.132Z,36.80
2019-03-24T10:10:44.439Z,37.15
2019-03-24T10:11:44.167Z,37.25
2019-03-24T10:12:44.692Z,37.03
2019-03-24T10:13:44.251Z,37.11
2019-03-24T10:14:44.072Z,36.68
2019-03-24T10:15:52.135Z,36.04
2019-03-24T10:16:44.735Z,35.74
2019-03-24T10:17:45.255Z,35.41
2019-03-24T10:18:44.126Z,34.60
2019-03-24T10:19:44.041Z,34.71
2019-03-24T10:20:44.003Z,35.42
2019-03-24T10:21:43.991Z,35.23
2019-03-24T10:22:43.985Z,34.86
2019-03-24T10:23:44.637Z,35.51
2019-03-24T10:24:44.857Z,35.92
2019-03-24T10:25:44.014Z,36.54
2019-03-24T10:26:43.942Z,36.68
2019-03-24T10:27:43.947Z,36.45
2019-03-24T10:28:44.027Z,35.02
2019-03-24T10:29:44.011Z,33.15
2019-03-24T10:30:43.961Z,32.45
2019-03-24T10:31:43.910Z,33.17
2019-03-24T10:32:43.884Z,33.59
2019-03-24T10:33:43.886Z,34.17
2019-03-24T10:34:43.979Z,35.00
2019-03-24T10:35:44.829Z,35.22
2019-03-24T10:36:43.840Z,35.22
2019-03-24T10:37:43.842Z,35.07
2019-03-24T10:38:43.823Z,34.29
2019-03-24T10:39:43.854Z,33.55
2019-03-24T10:40:43.919Z,32.59
2019-03-24T10:41:43.816Z,32.03
2019-03-24T10:42:43.857Z,32.80
2019-03-24T10:43:43.771Z,33.02
2019-03-24T10:44:44.071Z,32.43
2019-03-24T10:45:43.752Z,30.94
2019-03-24T10:46:43.755Z,29.01
2019-03-24T10:47:43.735Z,27.11
2019-03-24T10:48:43.726Z,26.44
2019-03-24T10:49:43.764Z,26.15
2019-03-24T10:50:43.881Z,26.16
2019-03-24T10:51:43.685Z,26.13
2019-03-24T10:52:43.705Z,26.25
2019-03-24T10:53:43.709Z,27.93
2019-03-24T10:54:43.663Z,27.74
2019-03-24T10:55:43.646Z,27.15
2019-03-24T10:56:43.779Z,27.39
2019-03-24T10:57:43.641Z,27.96
2019-03-24T10:58:43.623Z,28.17
2019-03-24T10:59:43.767Z,27.77
2019-03-24T11:00:43.603Z,27.85
2019-03-24T11:01:43.587Z,28.20
2019-03-24T11:02:43.676Z,29.17
2019-03-24T11:03:43.565Z,30.43
2019-03-24T11:04:43.573Z,30.81
2019-03-24T11:05:44.594Z,29.91
2019-03-24T11:06:43.541Z,29.51
2019-03-24T11:07:43.522Z,29.68
2019-03-24T11:08:43.663Z,29.47
2019-03-24T11:09:45.126Z,28.88
2019-03-24T11:10:43.502Z,28.75
2019-03-24T11:11:43.487Z,29.05
2019-03-24T11:12:43.575Z,29.42
2019-03-24T11:13:48.358Z,29.94
2019-03-24T11:14:43.882Z,30.88
2019-03-24T11:15:43.798Z,30.57
2019-03-24T11:16:43.441Z,31.02
2019-03-24T11:17:43.449Z,32.33
2019-03-24T11:18:43.418Z,33.09
2019-03-24T11:19:43.552Z,32.96
2019-03-24T11:20:43.395Z,32.68
2019-03-24T11:21:43.384Z,33.14
2019-03-24T11:22:43.379Z,32.00
2019-03-24T11:23:43.470Z,30.65
2019-03-24T11:24:43.511Z,29.65
2019-03-24T11:25:43.356Z,28.25
2019-03-24T11:26:43.342Z,26.51
2019-03-24T11:27:43.342Z,24.70
2019-03-24T11:28:43.328Z,24.14
2019-03-24T11:29:43.363Z,23.80
2019-03-24T11:30:43.449Z,23.65
2019-03-24T11:31:43.369Z,23.65
2019-03-24T11:32:43.289Z,23.54
2019-03-24T11:33:43.333Z,23.91
2019-03-24T11:34:43.307Z,24.88
2019-03-24T11:35:43.302Z,25.84
2019-03-24T11:36:43.423Z,27.35
2019-03-24T11:37:43.215Z,27.22
2019-03-24T11:38:43.213Z,26.83
2019-03-24T11:39:43.242Z,27.37
2019-03-24T11:40:43.393Z,28.67
2019-03-24T11:41:43.191Z,29.68
2019-03-24T11:42:43.162Z,30.73
2019-03-24T11:43:43.315Z,31.40
2019-03-24T11:44:43.169Z,32.04
2019-03-24T11:45:43.148Z,32.80
2019-03-24T11:46:43.132Z,33.47
2019-03-24T11:47:43.249Z,33.90
2019-03-24T11:48:43.240Z,34.13
2019-03-24T11:49:46.194Z,33.94
2019-03-24T11:50:43.086Z,34.13
2019-03-24T11:51:43.082Z,34.45
2019-03-24T11:52:43.059Z,34.86
2019-03-24T11:53:43.138Z,35.22
2019-03-24T11:54:43.046Z,34.64
2019-03-24T11:55:43.030Z,33.57
2019-03-24T11:56:43.033Z,33.95
2019-03-24T11:57:43.022Z,34.23
2019-03-24T11:58:43.175Z,34.17
2019-03-24T11:59:43.083Z,32.18
2019-03-24T12:00:42.981Z,30.27
2019-03-24T12:01:42.992Z,28.86
2019-03-24T12:02:43.476Z,27.73
2019-03-24T12:03:42.978Z,26.29
2019-03-24T12:04:43.049Z,25.44
2019-03-24T12:05:43.128Z,24.50
2019-03-24T12:06:42.930Z,23.88
2019-03-24T12:07:43.021Z,23.27
2019-03-24T12:08:42.930Z,23.65
2019-03-24T12:09:42.899Z,22.99
2019-03-24T12:10:42.951Z,22.10
2019-03-24T12:11:42.897Z,21.60
2019-03-24T12:12:42.850Z,21.73
2019-03-24T12:13:42.951Z,22.17
2019-03-24T12:14:42.844Z,21.51
2019-03-24T12:15:42.950Z,20.62
2019-03-24T12:16:42.840Z,20.36
2019-03-24T12:17:42.802Z,19.84
2019-03-24T12:18:43.039Z,20.31
2019-03-24T12:19:42.785Z,20.07
2019-03-24T12:20:42.785Z,21.03
2019-03-24T12:21:42.775Z,22.85
2019-03-24T12:22:42.807Z,24.14
2019-03-24T12:23:42.912Z,24.10
2019-03-24T12:24:42.733Z,22.06
2019-03-24T12:25:42.728Z,21.60
2019-03-24T12:26:42.705Z,22.30
2019-03-24T12:27:42.707Z,22.22
2019-03-24T12:28:42.730Z,22.59
2019-03-24T12:29:42.816Z,22.17
2019-03-24T12:30:42.662Z,22.60
2019-03-24T12:31:42.666Z,22.14
2019-03-24T12:32:42.665Z,23.32
2019-03-24T12:33:42.637Z,23.56
2019-03-24T12:34:42.757Z,23.61
2019-03-24T12:35:42.621Z,23.95
2019-03-24T12:36:42.603Z,23.65
2019-03-24T12:37:42.601Z,23.40
2019-03-24T12:38:42.588Z,23.47
2019-03-24T12:39:42.605Z,23.66
2019-03-24T12:40:42.660Z,24.48
2019-03-24T12:41:42.559Z,24.55
2019-03-24T12:42:42.549Z,24.69
2019-03-24T12:43:42.530Z,24.63
2019-03-24T12:44:42.537Z,24.30
2019-03-24T12:45:42.604Z,24.13
2019-03-24T12:46:42.620Z,23.59
2019-03-24T12:47:42.886Z,23.24
2019-03-24T12:48:42.475Z,23.21
2019-03-24T12:49:42.467Z,22.98
2019-03-24T12:50:42.461Z,22.96
2019-03-24T12:51:42.553Z,23.66
2019-03-24T12:52:42.428Z,23.76
2019-03-24T12:53:42.442Z,23.56
2019-03-24T12:54:42.421Z,23.28
2019-03-24T12:55:42.428Z,22.93
2019-03-24T12:56:42.610Z,22.76
2019-03-24T12:57:44.196Z,23.09
2019-03-24T12:58:42.519Z,23.20
2019-03-24T12:59:42.366Z,23.08
2019-03-24T13:00:42.347Z,23.13
2019-03-24T13:01:42.340Z,23.13
2019-03-24T13:02:42.407Z,23.40
2019-03-24T13:03:42.313Z,23.51
2019-03-24T13:04:42.308Z,23.32
2019-03-24T13:05:42.386Z,23.80